Union City, California
Current Conditions -  °F | °C
As of 4:54 PM on Saturday 25 Oct 2014 (Local Time) from KHWD Reporting Station
Broken Clouds Broken Clouds  
Wind Chill: 70°   Ceiling: 4300
Heat Index: 70°   Visibility: 10mi
Dew Point: 56°   Wind: 8mph
Humidity: 61%   Direction: 260°W
Pressure: 30.06"   Gusts: NA
Location:  37.59°N, 122.02°W
Report Text: KHWD 252354Z 26007KT 10SM SCT033 BKN043 21/13 A3006 RMK AO2 SLP189 60000 T02110133 10228 20178 50000
Loading
Personal Weather Stations






























Interactive Weather Map
Tropical Storm Tracking
New forecast layout! Learn more

10-Day Weather Forecast

Advertisements
Track Severe Weather on mobile